Terminal Aerodrome Forecast
Issued by NWS Lake Charles, LA

Home | Current Version | Previous Version | Text Only | Print | Product List | Glossary On
Versions: 1 2 3 4 5 6 7 8 9 10 11 12 13 14 15 16 17 18 19 20 21 22 23 24 25 26
000
FTUS44 KLCH 271754 AAA
TAFARA
TAF AMD
KARA 271754Z 2718/2818 30006KT P6SM -RA FEW040 OVC110
     FM271900 VRB06KT P6SM BKN035 OVC120
     FM272300 11003KT P6SM SCT024 OVC170
     FM280500 12003KT 3SM BR SCT024 OVC170
      TEMPO 2811/2813 1/2SM FG
     FM281500 13006KT P6SM BKN040 OVC160=

USA.gov is the U.S. government's official web portal to all federal, state and local government web resources and services.